createdAt,value
2019-01-29T00:02:21.114Z,-0.20
2019-01-29T00:04:47.573Z,-0.20
2019-01-29T00:07:15.078Z,-0.20
2019-01-29T00:09:41.530Z,-0.20
2019-01-29T00:12:07.996Z,-0.20
2019-01-29T00:14:34.413Z,-0.20
2019-01-29T00:17:00.864Z,-0.20
2019-01-29T00:19:27.276Z,-0.20
2019-01-29T00:21:53.691Z,-0.10
2019-01-29T00:24:20.157Z,-0.10
2019-01-29T00:26:46.512Z,-0.10
2019-01-29T00:29:13.171Z,-0.20
2019-01-29T00:31:39.542Z,-0.10
2019-01-29T00:34:05.993Z,-0.20
2019-01-29T00:36:32.360Z,-0.20
2019-01-29T00:38:58.763Z,-0.20
2019-01-29T00:41:25.154Z,-0.20
2019-01-29T00:43:51.660Z,-0.20
2019-01-29T00:46:18.060Z,-0.20
2019-01-29T00:48:44.440Z,-0.20
2019-01-29T00:51:10.860Z,-0.20
2019-01-29T00:53:37.247Z,-0.30
2019-01-29T00:56:03.635Z,-0.30
2019-01-29T00:58:30.811Z,-0.40
2019-01-29T01:00:57.171Z,-0.40
2019-01-29T01:03:23.569Z,-0.40
2019-01-29T01:05:49.921Z,-0.50
2019-01-29T01:08:16.332Z,-0.50
2019-01-29T01:10:42.692Z,-0.50
2019-01-29T01:13:09.095Z,-0.50
2019-01-29T01:15:35.493Z,-0.50
2019-01-29T01:18:01.915Z,-0.50
2019-01-29T01:20:28.318Z,-0.40
2019-01-29T01:22:54.737Z,-0.40
2019-01-29T01:25:21.086Z,-0.40
2019-01-29T01:27:47.502Z,-0.30
2019-01-29T01:30:15.952Z,-0.40
2019-01-29T01:32:42.350Z,-0.30
2019-01-29T01:35:08.956Z,-0.20
2019-01-29T01:37:35.378Z,-0.20
2019-01-29T01:40:06.111Z,-0.30
2019-01-29T01:42:32.440Z,-0.20
2019-01-29T01:44:58.821Z,-0.20
2019-01-29T01:47:25.177Z,-0.10
2019-01-29T01:49:51.560Z,-0.20
2019-01-29T01:52:17.954Z,-0.10
2019-01-29T01:54:44.397Z,-0.10
2019-01-29T01:57:10.851Z,0.00
2019-01-29T01:59:37.174Z,-0.10
2019-01-29T02:02:03.583Z,0.00
2019-01-29T02:04:30.030Z,-0.10
2019-01-29T02:06:56.432Z,-0.10
2019-01-29T02:09:22.800Z,-0.10
2019-01-29T02:11:49.203Z,-0.10
2019-01-29T02:14:15.595Z,-0.10
2019-01-29T02:16:41.949Z,0.00
2019-01-29T02:19:08.417Z,0.00
2019-01-29T02:21:34.767Z,-0.10
2019-01-29T02:24:01.125Z,-0.10
2019-01-29T02:26:27.465Z,-0.10
2019-01-29T02:28:53.862Z,0.00
2019-01-29T02:31:20.220Z,0.00
2019-01-29T02:33:46.678Z,0.00
2019-01-29T02:36:13.003Z,0.00
2019-01-29T02:38:39.392Z,0.00
2019-01-29T02:41:05.748Z,0.00
2019-01-29T02:43:32.238Z,0.00
2019-01-29T02:45:58.567Z,0.00
2019-01-29T02:48:24.932Z,0.00
2019-01-29T02:50:54.324Z,0.00
2019-01-29T02:53:20.647Z,0.00
2019-01-29T02:55:47.048Z,0.00
2019-01-29T02:58:13.425Z,0.00
2019-01-29T03:00:39.777Z,0.00
2019-01-29T03:03:06.208Z,0.00
2019-01-29T03:05:32.549Z,0.00
2019-01-29T03:07:58.939Z,0.00
2019-01-29T03:10:26.231Z,0.00
2019-01-29T03:12:52.934Z,0.00
2019-01-29T03:15:23.079Z,0.00
2019-01-29T03:17:52.510Z,0.00
2019-01-29T03:20:18.867Z,-0.10
2019-01-29T03:22:45.227Z,-0.10
2019-01-29T03:25:12.081Z,-0.10
2019-01-29T03:27:38.879Z,0.00
2019-01-29T03:30:09.062Z,0.00
2019-01-29T03:32:35.465Z,0.00
2019-01-29T03:35:02.257Z,0.00
2019-01-29T03:37:28.764Z,0.00
2019-01-29T03:39:55.156Z,0.20
2019-01-29T03:42:21.499Z,0.20
2019-01-29T03:44:47.876Z,0.20
2019-01-29T03:47:14.215Z,0.20
2019-01-29T03:49:40.605Z,0.10
2019-01-29T03:52:06.968Z,0.20
2019-01-29T03:54:33.321Z,0.20
2019-01-29T03:56:59.695Z,0.10
2019-01-29T03:59:26.084Z,0.10
2019-01-29T04:01:52.461Z,0.10
2019-01-29T04:04:18.848Z,0.20
2019-01-29T04:06:45.352Z,0.10
2019-01-29T04:09:11.878Z,0.10
2019-01-29T04:11:38.340Z,0.10
2019-01-29T04:14:04.742Z,0.10
2019-01-29T04:16:31.207Z,0.10
2019-01-29T04:18:57.523Z,0.10
2019-01-29T04:21:23.904Z,0.10
2019-01-29T04:23:50.241Z,0.10
2019-01-29T04:26:16.644Z,0.00
2019-01-29T04:28:42.987Z,0.10
2019-01-29T04:31:09.368Z,0.00
2019-01-29T04:33:35.755Z,0.00
2019-01-29T04:36:02.145Z,0.10
2019-01-29T04:38:28.521Z,0.10
2019-01-29T04:40:54.883Z,0.10
2019-01-29T04:43:21.370Z,0.10
2019-01-29T04:45:47.722Z,0.10
2019-01-29T04:48:14.138Z,0.10
2019-01-29T04:50:40.492Z,0.10
2019-01-29T04:53:06.925Z,0.10
2019-01-29T04:55:33.276Z,0.10
2019-01-29T04:57:59.691Z,0.20
2019-01-29T05:00:26.233Z,0.20
2019-01-29T05:02:52.670Z,0.20
2019-01-29T05:05:19.408Z,0.20
2019-01-29T05:07:45.760Z,0.20
2019-01-29T05:10:14.516Z,0.20
2019-01-29T05:12:40.899Z,0.20
2019-01-29T05:15:10.092Z,0.30
2019-01-29T05:17:36.444Z,0.20
2019-01-29T05:20:05.576Z,0.20
2019-01-29T05:22:32.057Z,0.30
2019-01-29T05:24:58.452Z,0.30
2019-01-29T05:27:24.806Z,0.30
2019-01-29T05:29:51.220Z,0.20
2019-01-29T05:32:17.546Z,0.30
2019-01-29T05:34:43.954Z,0.30
2019-01-29T05:37:10.322Z,0.30
2019-01-29T05:39:36.801Z,0.30
2019-01-29T05:42:03.273Z,0.30
2019-01-29T05:44:29.643Z,0.40
2019-01-29T05:46:56.031Z,0.40
2019-01-29T05:49:22.365Z,0.40
2019-01-29T05:51:48.783Z,0.30
2019-01-29T05:54:16.410Z,0.40
2019-01-29T05:56:43.085Z,0.40
2019-01-29T05:59:09.427Z,0.40
2019-01-29T06:01:35.884Z,0.40
2019-01-29T06:04:02.383Z,0.40
2019-01-29T06:06:28.821Z,0.40
2019-01-29T06:08:55.250Z,0.50
2019-01-29T06:11:21.653Z,0.50
2019-01-29T06:13:47.994Z,0.40
2019-01-29T06:16:15.483Z,0.50
2019-01-29T06:18:41.870Z,0.50
2019-01-29T06:21:08.244Z,0.50
2019-01-29T06:23:34.700Z,0.60
2019-01-29T06:26:01.111Z,0.60
2019-01-29T06:28:27.602Z,0.60
2019-01-29T06:30:54.004Z,0.60
2019-01-29T06:33:20.457Z,0.60
2019-01-29T06:35:46.868Z,0.60
2019-01-29T06:38:13.353Z,0.60
2019-01-29T06:40:39.857Z,0.60
2019-01-29T06:43:06.218Z,0.60
2019-01-29T06:45:32.608Z,0.70
2019-01-29T06:47:58.992Z,0.70
2019-01-29T06:50:26.142Z,0.80
2019-01-29T06:52:53.200Z,0.80
2019-01-29T06:55:21.665Z,0.80
2019-01-29T06:57:55.112Z,0.80
2019-01-29T07:00:22.927Z,0.90
2019-01-29T07:02:49.381Z,0.90
2019-01-29T07:05:15.766Z,0.90
2019-01-29T07:07:42.137Z,1.00
2019-01-29T07:10:15.374Z,1.00
2019-01-29T07:12:41.819Z,0.90
2019-01-29T07:15:14.348Z,1.00
2019-01-29T07:17:40.897Z,1.00
2019-01-29T07:20:09.328Z,1.00
2019-01-29T07:22:36.555Z,1.00
2019-01-29T07:25:05.645Z,1.00
2019-01-29T07:27:32.080Z,1.10
2019-01-29T07:29:58.475Z,1.10
2019-01-29T07:32:24.973Z,1.10
2019-01-29T07:34:51.614Z,1.20
2019-01-29T07:37:22.106Z,1.20
2019-01-29T07:39:46.915Z,1.20
2019-01-29T07:42:13.464Z,1.20
2019-01-29T07:44:40.232Z,1.20
2019-01-29T07:47:07.735Z,1.10
2019-01-29T07:49:34.235Z,1.30
2019-01-29T07:52:00.718Z,1.30
2019-01-29T07:54:33.167Z,1.40
2019-01-29T07:56:55.499Z,1.30
2019-01-29T07:59:32.637Z,1.30
2019-01-29T08:01:50.405Z,1.30
2019-01-29T08:04:16.887Z,1.30
2019-01-29T08:06:43.292Z,1.40
2019-01-29T08:09:09.982Z,1.50
2019-01-29T08:11:36.541Z,1.40
2019-01-29T08:14:03.656Z,1.40
2019-01-29T08:16:30.194Z,1.50
2019-01-29T08:18:56.894Z,1.40
2019-01-29T08:21:23.492Z,1.40
2019-01-29T08:23:50.162Z,1.50
2019-01-29T08:26:16.599Z,1.50
2019-01-29T08:28:43.085Z,1.50
2019-01-29T08:31:09.908Z,1.50
2019-01-29T08:33:36.405Z,1.50
2019-01-29T08:36:03.831Z,1.60
2019-01-29T08:38:30.240Z,1.60
2019-01-29T08:40:56.737Z,1.50
2019-01-29T08:43:23.274Z,1.60
2019-01-29T08:45:50.000Z,1.60
2019-01-29T08:48:17.355Z,1.60
2019-01-29T08:50:43.990Z,1.60
2019-01-29T08:53:10.364Z,1.60
2019-01-29T08:55:36.760Z,1.60
2019-01-29T08:58:03.211Z,1.60
2019-01-29T09:00:29.571Z,1.70
2019-01-29T09:02:56.664Z,1.60
2019-01-29T09:05:23.412Z,1.60
2019-01-29T09:07:50.529Z,1.70
2019-01-29T09:10:18.690Z,1.70
2019-01-29T09:12:45.417Z,1.70
2019-01-29T09:15:19.568Z,1.70
2019-01-29T09:17:46.051Z,1.70
2019-01-29T09:20:15.156Z,1.80
2019-01-29T09:22:42.583Z,1.70
2019-01-29T09:25:19.246Z,1.80
2019-01-29T09:27:39.683Z,1.90
2019-01-29T09:30:09.744Z,1.90
2019-01-29T09:32:36.215Z,1.90
2019-01-29T09:35:03.738Z,1.90
2019-01-29T09:37:30.227Z,1.90
2019-01-29T09:39:56.674Z,1.90
2019-01-29T09:42:23.015Z,2.00
2019-01-29T09:44:49.433Z,1.90
2019-01-29T09:47:15.810Z,2.10
2019-01-29T09:49:42.229Z,2.10
2019-01-29T09:52:08.586Z,2.10
2019-01-29T09:54:34.998Z,2.20
2019-01-29T09:57:01.384Z,2.20
2019-01-29T09:59:27.796Z,2.20
2019-01-29T10:01:54.195Z,2.10
2019-01-29T10:04:20.638Z,2.00
2019-01-29T10:06:47.069Z,2.00
2019-01-29T10:09:13.451Z,2.00
2019-01-29T10:11:39.880Z,2.00
2019-01-29T10:14:06.242Z,1.90
2019-01-29T10:16:32.683Z,2.00
2019-01-29T10:18:59.014Z,1.90
2019-01-29T10:21:25.471Z,1.90
2019-01-29T10:23:51.969Z,1.90
2019-01-29T10:26:18.382Z,1.90
2019-01-29T10:28:44.815Z,1.90
2019-01-29T10:31:11.239Z,1.90
2019-01-29T10:33:37.711Z,1.90
2019-01-29T10:36:04.279Z,2.00
2019-01-29T10:38:31.082Z,2.00
2019-01-29T10:40:57.684Z,2.00
2019-01-29T10:43:24.744Z,2.00
2019-01-29T10:45:51.609Z,2.00
2019-01-29T10:48:17.934Z,2.00
2019-01-29T10:50:44.687Z,2.00
2019-01-29T10:53:11.063Z,1.90
2019-01-29T10:55:46.764Z,1.90
2019-01-29T10:58:05.725Z,2.00
2019-01-29T11:00:35.055Z,1.90
2019-01-29T11:03:01.604Z,2.00
2019-01-29T11:05:28.341Z,2.00
2019-01-29T11:07:54.739Z,2.10
2019-01-29T11:10:21.401Z,2.10
2019-01-29T11:12:48.002Z,2.20
2019-01-29T11:15:17.411Z,2.10
2019-01-29T11:17:43.990Z,2.10
2019-01-29T11:20:13.643Z,2.10
2019-01-29T11:22:40.060Z,2.20
2019-01-29T11:25:10.291Z,2.10
2019-01-29T11:27:36.879Z,2.10
2019-01-29T11:30:06.530Z,2.10
2019-01-29T11:32:33.065Z,2.10
2019-01-29T11:34:59.475Z,2.20
2019-01-29T11:37:25.810Z,2.30
2019-01-29T11:39:52.253Z,2.30
2019-01-29T11:42:18.670Z,2.40
2019-01-29T11:44:45.065Z,2.40
2019-01-29T11:47:11.545Z,2.40
2019-01-29T11:49:38.075Z,2.30
2019-01-29T11:52:04.689Z,2.40
2019-01-29T11:54:31.160Z,2.30
2019-01-29T11:56:57.555Z,2.20
2019-01-29T11:59:24.023Z,2.30
2019-01-29T12:01:50.369Z,2.30
2019-01-29T12:04:16.918Z,2.30
2019-01-29T12:06:43.400Z,2.40
2019-01-29T12:09:09.943Z,2.40
2019-01-29T12:11:36.642Z,2.50
2019-01-29T12:14:03.435Z,2.50
2019-01-29T12:16:29.888Z,2.50
2019-01-29T12:18:56.247Z,2.40
2019-01-29T12:21:22.713Z,2.40
2019-01-29T12:23:49.080Z,2.40
2019-01-29T12:26:15.547Z,2.20
2019-01-29T12:28:42.095Z,2.20
2019-01-29T12:31:08.520Z,2.20
2019-01-29T12:33:36.007Z,2.30
2019-01-29T12:36:02.446Z,2.20
2019-01-29T12:38:29.008Z,2.20
2019-01-29T12:40:56.308Z,2.20
2019-01-29T12:43:22.739Z,2.20
2019-01-29T12:45:49.185Z,2.10
2019-01-29T12:48:16.674Z,2.10
2019-01-29T12:50:44.974Z,2.10
2019-01-29T12:53:13.337Z,2.00
2019-01-29T12:55:39.792Z,2.00
2019-01-29T12:58:06.888Z,2.00
2019-01-29T13:00:41.320Z,2.00
2019-01-29T13:03:07.716Z,2.00
2019-01-29T13:05:34.104Z,2.00
2019-01-29T13:08:00.513Z,2.00
2019-01-29T13:10:27.047Z,2.00
2019-01-29T13:12:53.458Z,1.80
2019-01-29T13:15:29.212Z,1.80
2019-01-29T13:17:57.417Z,1.80
2019-01-29T13:20:23.892Z,1.80
2019-01-29T13:22:50.397Z,1.80
2019-01-29T13:25:17.104Z,1.80
2019-01-29T13:27:43.564Z,1.80
2019-01-29T13:30:21.959Z,1.80
2019-01-29T13:32:48.631Z,1.80
2019-01-29T13:35:16.394Z,1.80
2019-01-29T13:37:42.783Z,1.80
2019-01-29T13:40:12.044Z,1.90
2019-01-29T13:42:38.475Z,1.90
2019-01-29T13:45:08.399Z,1.90
2019-01-29T13:47:35.451Z,1.90
2019-01-29T13:50:04.752Z,2.00
2019-01-29T13:52:31.107Z,2.00
2019-01-29T13:54:57.666Z,2.00
2019-01-29T13:57:24.083Z,1.90
2019-01-29T13:59:50.568Z,1.80
2019-01-29T14:02:17.023Z,1.90
2019-01-29T14:04:43.491Z,1.80
2019-01-29T14:07:09.971Z,1.70
2019-01-29T14:09:36.463Z,1.80
2019-01-29T14:12:04.322Z,1.70
2019-01-29T14:14:32.349Z,1.70
2019-01-29T14:16:58.745Z,1.70
2019-01-29T14:19:25.155Z,1.70
2019-01-29T14:21:52.128Z,1.70
2019-01-29T14:24:18.664Z,1.70
2019-01-29T14:26:47.917Z,1.70
2019-01-29T14:29:13.298Z,1.70
2019-01-29T14:31:39.859Z,1.60
2019-01-29T14:34:06.290Z,1.60
2019-01-29T14:36:33.030Z,1.60
2019-01-29T14:39:12.247Z,1.50
2019-01-29T14:41:38.981Z,1.50
2019-01-29T14:44:05.428Z,1.50
2019-01-29T14:46:31.813Z,1.50
2019-01-29T14:48:58.279Z,1.50
2019-01-29T14:51:24.731Z,1.50
2019-01-29T14:53:51.158Z,1.50
2019-01-29T14:56:17.780Z,1.50
2019-01-29T14:58:44.173Z,1.50
2019-01-29T15:01:10.897Z,1.40
2019-01-29T15:03:37.442Z,1.50
2019-01-29T15:06:03.983Z,1.50
2019-01-29T15:08:30.433Z,1.40
2019-01-29T15:10:56.809Z,1.30
2019-01-29T15:13:23.338Z,1.30
2019-01-29T15:15:51.566Z,1.30
2019-01-29T15:18:19.880Z,1.30
2019-01-29T15:20:46.268Z,1.30
2019-01-29T15:23:12.802Z,1.20
2019-01-29T15:25:39.313Z,1.20
2019-01-29T15:28:05.631Z,1.20
2019-01-29T15:30:32.071Z,1.20
2019-01-29T15:32:58.590Z,1.10
2019-01-29T15:35:25.134Z,1.10
2019-01-29T15:37:51.543Z,1.10
2019-01-29T15:40:19.840Z,1.10
2019-01-29T15:42:46.721Z,1.10
2019-01-29T15:45:18.811Z,1.10
2019-01-29T15:47:45.230Z,1.10
2019-01-29T15:50:18.118Z,1.00
2019-01-29T15:52:48.600Z,1.00
2019-01-29T15:55:14.641Z,1.00
2019-01-29T15:57:42.036Z,1.00
2019-01-29T16:00:12.407Z,0.90
2019-01-29T16:02:38.827Z,0.90
2019-01-29T16:05:09.500Z,0.90
2019-01-29T16:07:37.298Z,0.90
2019-01-29T16:10:10.909Z,0.90
2019-01-29T16:12:38.264Z,0.80
2019-01-29T16:15:08.872Z,0.80
2019-01-29T16:17:35.633Z,0.70
2019-01-29T16:20:05.522Z,0.60
2019-01-29T16:22:32.154Z,0.60
2019-01-29T16:24:58.727Z,0.50
2019-01-29T16:27:25.315Z,0.50
2019-01-29T16:29:51.648Z,0.40
2019-01-29T16:32:18.181Z,0.30
2019-01-29T16:34:44.657Z,0.20
2019-01-29T16:37:14.205Z,0.20
2019-01-29T16:39:41.191Z,0.10
2019-01-29T16:42:07.785Z,0.10
2019-01-29T16:44:35.526Z,0.10
2019-01-29T16:47:02.099Z,0.10
2019-01-29T16:49:28.771Z,0.00
2019-01-29T16:51:55.329Z,0.10
2019-01-29T16:54:21.718Z,0.00
2019-01-29T16:56:48.138Z,0.00
2019-01-29T16:59:14.719Z,0.00
2019-01-29T17:01:41.174Z,0.00
2019-01-29T17:04:07.668Z,-0.10
2019-01-29T17:06:34.088Z,0.00
2019-01-29T17:09:00.560Z,-0.10
2019-01-29T17:11:26.916Z,-0.10
2019-01-29T17:13:53.314Z,-0.10
2019-01-29T17:16:19.680Z,-0.20
2019-01-29T17:18:46.048Z,-0.10
2019-01-29T17:21:12.544Z,-0.20
2019-01-29T17:23:38.876Z,-0.10
2019-01-29T17:26:05.265Z,-0.10
2019-01-29T17:28:31.700Z,-0.10
2019-01-29T17:30:58.044Z,0.00
2019-01-29T17:33:24.592Z,0.00
2019-01-29T17:35:50.971Z,0.00
2019-01-29T17:38:17.361Z,0.00
2019-01-29T17:40:44.668Z,0.00
2019-01-29T17:43:11.156Z,0.10
2019-01-29T17:45:42.796Z,0.10
2019-01-29T17:48:09.201Z,0.10
2019-01-29T17:50:38.365Z,0.20
2019-01-29T17:53:05.864Z,0.20
2019-01-29T17:55:33.944Z,0.20
2019-01-29T17:58:00.437Z,0.20
2019-01-29T18:00:29.798Z,0.30
2019-01-29T18:02:56.404Z,0.30
2019-01-29T18:05:22.876Z,0.30
2019-01-29T18:07:49.336Z,0.30
2019-01-29T18:10:17.164Z,0.30
2019-01-29T18:12:43.513Z,0.20
2019-01-29T18:15:13.375Z,0.30
2019-01-29T18:17:39.872Z,0.30
2019-01-29T18:20:07.187Z,0.30
2019-01-29T18:22:33.570Z,0.30
2019-01-29T18:24:59.968Z,0.30
2019-01-29T18:27:26.413Z,0.30
2019-01-29T18:29:52.772Z,0.40
2019-01-29T18:32:19.250Z,0.30
2019-01-29T18:34:45.703Z,0.30
2019-01-29T18:37:12.233Z,0.30
2019-01-29T18:39:38.674Z,0.30
2019-01-29T18:42:05.992Z,0.30
2019-01-29T18:44:32.674Z,0.30
2019-01-29T18:46:59.166Z,0.30
2019-01-29T18:49:26.090Z,0.30
2019-01-29T18:51:52.604Z,0.30
2019-01-29T18:54:19.023Z,0.20
2019-01-29T18:56:45.761Z,0.20
2019-01-29T18:59:12.303Z,0.20
2019-01-29T19:01:38.747Z,0.30
2019-01-29T19:04:05.242Z,0.30
2019-01-29T19:06:31.658Z,0.30
2019-01-29T19:08:58.071Z,0.30
2019-01-29T19:11:24.468Z,0.40
2019-01-29T19:13:50.979Z,0.40
2019-01-29T19:16:17.430Z,0.40
2019-01-29T19:18:43.885Z,0.40
2019-01-29T19:21:10.395Z,0.30
2019-01-29T19:23:37.382Z,0.40
2019-01-29T19:26:04.009Z,0.30
2019-01-29T19:28:32.990Z,0.30
2019-01-29T19:30:59.683Z,0.30
2019-01-29T19:33:26.889Z,0.40
2019-01-29T19:35:53.499Z,0.40
2019-01-29T19:38:19.900Z,0.40
2019-01-29T19:40:47.255Z,0.40
2019-01-29T19:43:15.069Z,0.40
2019-01-29T19:45:41.837Z,0.40
2019-01-29T19:48:09.525Z,0.40
2019-01-29T19:50:36.797Z,0.40
2019-01-29T19:53:03.579Z,0.40
2019-01-29T19:55:30.103Z,0.50
2019-01-29T19:57:57.117Z,0.40
2019-01-29T20:00:32.926Z,0.50
2019-01-29T20:03:01.382Z,0.40
2019-01-29T20:05:27.783Z,0.40
2019-01-29T20:07:54.277Z,0.50
2019-01-29T20:10:22.394Z,0.40
2019-01-29T20:12:49.524Z,0.50
2019-01-29T20:15:21.116Z,0.40
2019-01-29T20:17:49.060Z,0.40
2019-01-29T20:20:18.685Z,0.50
2019-01-29T20:22:47.866Z,0.40
2019-01-29T20:25:14.233Z,0.40
2019-01-29T20:27:40.783Z,0.40
2019-01-29T20:30:22.732Z,0.40
2019-01-29T20:32:53.529Z,0.40
2019-01-29T20:35:17.969Z,0.40
2019-01-29T20:37:44.508Z,0.40
2019-01-29T20:40:14.218Z,0.40
2019-01-29T20:42:43.857Z,0.40
2019-01-29T20:45:12.170Z,0.40
2019-01-29T20:47:38.649Z,0.40
2019-01-29T20:50:18.401Z,0.50
2019-01-29T20:52:45.648Z,0.40
2019-01-29T20:55:12.434Z,0.40
2019-01-29T20:57:40.977Z,0.40
2019-01-29T21:00:27.259Z,0.40
2019-01-29T21:02:54.148Z,0.40
2019-01-29T21:05:21.460Z,0.40
2019-01-29T21:07:48.625Z,0.40
2019-01-29T21:10:17.939Z,0.40
2019-01-29T21:12:45.141Z,0.40
2019-01-29T21:15:20.468Z,0.40
2019-01-29T21:17:46.996Z,0.40
2019-01-29T21:20:19.578Z,0.50
2019-01-29T21:22:45.935Z,0.50
2019-01-29T21:25:13.107Z,0.40
2019-01-29T21:27:39.713Z,0.40
2019-01-29T21:30:13.451Z,0.40
2019-01-29T21:32:39.835Z,0.30
2019-01-29T21:35:06.900Z,0.30
2019-01-29T21:37:33.332Z,0.30
2019-01-29T21:39:59.885Z,0.30
2019-01-29T21:42:26.360Z,0.20
2019-01-29T21:44:52.724Z,0.20
2019-01-29T21:47:19.243Z,0.20
2019-01-29T21:49:45.646Z,0.20
2019-01-29T21:52:12.092Z,0.20
2019-01-29T21:54:38.457Z,0.30
2019-01-29T21:57:04.948Z,0.20
2019-01-29T21:59:31.394Z,0.30
2019-01-29T22:01:57.786Z,0.30
2019-01-29T22:04:24.257Z,0.20
2019-01-29T22:06:50.768Z,0.30
2019-01-29T22:09:17.396Z,0.20
2019-01-29T22:11:43.864Z,0.30
2019-01-29T22:14:10.214Z,0.30
2019-01-29T22:16:36.576Z,0.20
2019-01-29T22:19:03.177Z,0.30
2019-01-29T22:21:29.555Z,0.20
2019-01-29T22:23:56.021Z,0.10
2019-01-29T22:26:22.561Z,0.10
2019-01-29T22:28:48.905Z,0.00
2019-01-29T22:31:15.377Z,0.00
2019-01-29T22:33:41.725Z,0.00
2019-01-29T22:36:08.146Z,0.00
2019-01-29T22:38:34.501Z,0.10
2019-01-29T22:41:00.885Z,0.10
2019-01-29T22:43:27.290Z,0.10
2019-01-29T22:45:53.680Z,0.20
2019-01-29T22:48:20.175Z,0.20
2019-01-29T22:50:46.547Z,0.10
2019-01-29T22:53:12.947Z,0.10
2019-01-29T22:55:39.372Z,0.10
2019-01-29T22:58:06.159Z,0.10
2019-01-29T23:00:50.435Z,0.00
2019-01-29T23:03:19.296Z,0.00
2019-01-29T23:05:55.333Z,0.00
2019-01-29T23:08:21.671Z,0.00
2019-01-29T23:10:48.089Z,0.10
2019-01-29T23:13:14.504Z,0.00
2019-01-29T23:15:40.882Z,0.10
2019-01-29T23:18:07.436Z,0.00
2019-01-29T23:20:33.937Z,0.10
2019-01-29T23:23:00.272Z,0.10
2019-01-29T23:25:26.690Z,0.10
2019-01-29T23:27:53.290Z,0.10
2019-01-29T23:30:20.555Z,0.00
2019-01-29T23:32:46.989Z,0.10
2019-01-29T23:35:13.628Z,0.10
2019-01-29T23:37:40.146Z,0.10
2019-01-29T23:40:16.071Z,0.10
2019-01-29T23:42:42.523Z,0.10
2019-01-29T23:45:13.287Z,0.10
2019-01-29T23:47:39.711Z,0.20
2019-01-29T23:50:12.757Z,0.20
2019-01-29T23:52:39.152Z,0.20
2019-01-29T23:55:06.745Z,0.30
2019-01-29T23:57:33.188Z,0.20
2019-01-29T23:59:59.521Z,0.20
